Orbital elements of FENGYUN 1C DEB
| Launched | 9 May 1999 |
| Flight ended | – |
| Launch site | Taiyuan Space Center, PRC |
| Owner | People's Republic of China |
| NORAD ID | 30287 |
| Date fetched |
Epoch osculation |
Inc. [°] |
Ecc. | RA asc node [hr] |
Arg Peri. [°] |
Mean anom [°] |
Mean motion [rev/day] |
Abs. mag |
| Date fetched |
Epoch osculation |
Inc. [°] |
Ecc. | RA asc node [hr] |
Arg Peri. [°] |
Mean anom [°] |
Mean motion [rev/day] |
Abs. mag |
| 2026 May 05 17:57 | 2026 May 05 01:09:11 | 98.6194 | 0.04115 | 9.9799 | 351.2784 | 27.6974 | 13.69064 | – |
| 2026 May 04 17:57 | 2026 Apr 30 14:38:50 | 98.6197 | 0.04118 | 9.7142 | 3.1003 | 27.6974 | 13.69064 | – |
| 2026 May 03 17:57 | 2026 Apr 30 14:38:50 | 98.6197 | 0.04118 | 9.7142 | 3.1003 | 27.6974 | 13.69064 | – |
| 2026 May 02 17:57 | 2026 Apr 30 14:38:50 | 98.6197 | 0.04118 | 9.7142 | 3.1003 | 27.6974 | 13.69064 | – |
| 2026 May 01 17:56 | 2026 Apr 30 14:38:50 | 98.6197 | 0.04118 | 9.7142 | 3.1003 | 27.6974 | 13.69064 | – |
| 2026 Apr 30 17:56 | 2026 Apr 30 14:38:50 | 98.6197 | 0.04118 | 9.7142 | 3.1003 | 27.6974 | 13.69064 | – |
| 2026 Apr 29 17:57 | 2026 Apr 24 00:21:12 | 98.6202 | 0.04124 | 9.3194 | 20.6588 | 27.6974 | 13.69064 | – |
| 2026 Apr 28 17:56 | 2026 Apr 24 00:21:12 | 98.6202 | 0.04124 | 9.3194 | 20.6588 | 27.6974 | 13.69064 | – |
| 2026 Apr 27 17:58 | 2026 Apr 24 00:21:12 | 98.6202 | 0.04124 | 9.3194 | 20.6588 | 27.6974 | 13.69064 | – |
| 2026 Apr 26 17:58 | 2026 Apr 24 00:21:12 | 98.6202 | 0.04124 | 9.3194 | 20.6588 | 27.6974 | 13.69064 | – |
| 2026 Apr 25 17:58 | 2026 Apr 24 00:21:12 | 98.6202 | 0.04124 | 9.3194 | 20.6588 | 27.6974 | 13.69064 | – |
| 2026 Apr 24 17:59 | 2026 Apr 24 00:21:12 | 98.6202 | 0.04124 | 9.3194 | 20.6588 | 27.6974 | 13.69064 | – |
| 2026 Apr 23 17:57 | 2026 Apr 19 08:02:27 | 98.6210 | 0.04127 | 9.0393 | 33.1011 | 27.6974 | 13.69064 | – |
| 2026 Apr 22 17:57 | 2026 Apr 19 08:02:27 | 98.6210 | 0.04127 | 9.0393 | 33.1011 | 27.6974 | 13.69064 | – |
| 2026 Apr 21 17:57 | 2026 Apr 19 08:02:27 | 98.6210 | 0.04127 | 9.0393 | 33.1011 | 27.6974 | 13.69064 | – |
| 2026 Apr 20 17:57 | 2026 Apr 19 08:02:27 | 98.6210 | 0.04127 | 9.0393 | 33.1011 | 27.6974 | 13.69064 | – |
| 2026 Apr 19 17:58 | 2026 Apr 19 08:02:27 | 98.6210 | 0.04127 | 9.0393 | 33.1011 | 27.6974 | 13.69064 | – |
| 2026 Apr 18 17:56 | 2026 Apr 13 01:14:37 | 98.6221 | 0.04131 | 8.6632 | 49.7890 | 27.6974 | 13.69064 | – |
| 2026 Apr 16 17:57 | 2026 Apr 13 01:14:37 | 98.6221 | 0.04131 | 8.6632 | 49.7890 | 27.6974 | 13.69064 | – |
| 2026 Apr 14 17:57 | 2026 Apr 13 01:14:37 | 98.6221 | 0.04131 | 8.6632 | 49.7890 | 27.6974 | 13.69064 | – |
| 2026 Apr 13 17:57 | 2026 Apr 13 01:14:37 | 98.6221 | 0.04131 | 8.6632 | 49.7890 | 27.6974 | 13.69064 | – |
| 2026 Apr 12 17:57 | 2026 Apr 08 14:40:04 | 98.6226 | 0.04134 | 8.3974 | 61.5766 | 27.6974 | 13.69064 | – |
| 2026 Apr 11 17:57 | 2026 Apr 08 14:40:04 | 98.6226 | 0.04134 | 8.3974 | 61.5766 | 27.6974 | 13.69064 | – |
| 2026 Apr 10 17:58 | 2026 Apr 08 14:40:04 | 98.6226 | 0.04134 | 8.3974 | 61.5766 | 27.6974 | 13.69064 | – |
| 2026 Apr 09 18:01 | 2026 Apr 08 14:40:04 | 98.6226 | 0.04134 | 8.3974 | 61.5766 | 27.6974 | 13.69064 | – |
| 2026 Apr 08 17:57 | 2026 Apr 08 14:40:04 | 98.6226 | 0.04134 | 8.3974 | 61.5766 | 27.6974 | 13.69064 | – |